TimeMDT,TemperatureF,Dew PointF,Humidity,Sea Level PressureIn,VisibilityMPH,Wind Direction,Wind SpeedMPH,Gust SpeedMPH,PrecipitationIn,Events,Conditions,WindDirDegrees,DateUTC
12:53 AM,66.9,54.0,63,29.89,10.0,ENE,5.8,-,N/A,,Clear,60,2013-07-25 06:53:00
1:53 AM,63.0,53.1,70,29.89,10.0,NE,4.6,-,N/A,,Clear,50,2013-07-25 07:53:00
2:53 AM,59.0,53.1,81,29.93,10.0,Calm,Calm,-,N/A,,Clear,0,2013-07-25 08:53:00
3:53 AM,60.1,53.1,78,29.98,10.0,Calm,Calm,-,N/A,,Clear,0,2013-07-25 09:53:00
4:53 AM,57.9,53.1,84,29.99,10.0,Calm,Calm,-,N/A,,Clear,0,2013-07-25 10:53:00
5:53 AM,59.0,54.0,83,29.97,10.0,ENE,3.5,-,N/A,,Clear,70,2013-07-25 11:53:00
6:53 AM,57.9,52.0,81,29.99,10.0,Calm,Calm,-,N/A,,Clear,0,2013-07-25 12:53:00
7:53 AM,62.1,55.0,78,30.00,10.0,Calm,Calm,-,N/A,,Clear,0,2013-07-25 13:53:00
8:53 AM,68.0,55.9,65,29.99,10.0,Calm,Calm,-,N/A,,Clear,0,2013-07-25 14:53:00
9:53 AM,75.0,55.9,51,29.98,10.0,Calm,Calm,-,N/A,,Clear,0,2013-07-25 15:53:00
10:53 AM,82.0,53.1,37,29.96,10.0,Calm,Calm,-,N/A,,Clear,0,2013-07-25 16:53:00
11:53 AM,84.0,51.1,32,29.96,10.0,West,4.6,-,N/A,,Clear,260,2013-07-25 17:53:00
12:53 PM,86.0,51.1,30,29.95,10.0,Calm,Calm,-,N/A,,Clear,0,2013-07-25 18:53:00
1:53 PM,88.0,48.9,26,29.93,10.0,Calm,Calm,-,N/A,,Clear,0,2013-07-25 19:53:00
2:53 PM,87.1,46.9,25,29.94,10.0,Calm,Calm,-,N/A,,Clear,0,2013-07-25 20:53:00
3:53 PM,87.1,51.1,29,29.93,10.0,SW,8.1,-,N/A,,Clear,220,2013-07-25 21:53:00
4:53 PM,87.1,48.9,27,29.92,10.0,SW,8.1,-,N/A,,Clear,230,2013-07-25 22:53:00
5:53 PM,89.1,44.1,21,29.90,10.0,SSW,3.5,-,N/A,,Clear,200,2013-07-25 23:53:00
6:53 PM,89.1,46.9,23,29.90,10.0,SW,5.8,-,N/A,,Clear,220,2013-07-26 00:53:00
7:53 PM,84.9,48.0,28,29.91,10.0,SSW,4.6,-,N/A,,Clear,200,2013-07-26 01:53:00
8:53 PM,79.0,48.9,35,29.92,10.0,SSW,4.6,-,N/A,,Clear,210,2013-07-26 02:53:00
9:53 PM,75.9,50.0,40,29.94,10.0,SSW,6.9,-,N/A,,Clear,200,2013-07-26 03:53:00
10:53 PM,75.0,50.0,41,29.94,10.0,Calm,Calm,-,N/A,,Clear,0,2013-07-26 04:53:00
11:53 PM,73.0,52.0,48,29.96,10.0,SSW,3.5,-,N/A,,Clear,210,2013-07-26 05:53:00